• Join FlightAware (Why Join?)
  • Login
  • US Flag 
07:34AM EST


 

Airport Tracker/Info


-or-


 

Live Flight TrackerFlight Track Log ✈ UAL235 ✈ 25-Apr-2013 ✈ KDEN - KLAX

Flight Track Log - Related Links

Times and Time Zones

All times are in EDT time to prevent confusion due to time zone crossing. See the UAL235 flight status page for this flight to view local times or setup timezone preferences in your user account.

Time Position Orientation Groundspeed Altitude Reporting Facility
EDT Latitude Longitude Course Direction KTS MPH feet Rate Location/Type
05:43PM 39.7833 -104.6833 247° West 208 239 7,500  Level Denver TRACON
05:44PM 39.7500 -104.7667 243° Southwest 285 328 9,500 2,040 Climbing Denver TRACON
05:45PM 39.7862 -105.0665 258° West  Level FlightAware Approximate
05:45PM 39.7547 -104.8061 279° West 288 331 10,300  Level Denver Center
05:46PM 39.7667 -105.2001 270° West  Level FlightAware Approximate
05:46PM 39.7589 -104.9233 273° West 320 368 12,900  Level Denver Center
05:47PM 39.7468 -105.3330 255° West  Level FlightAware Approximate
05:47PM 39.7775 -105.0481 281° West 324 373 16,300  Level Denver Center
05:48PM 39.7251 -105.4662 261° West  Level FlightAware Approximate
05:48PM 39.7917 -105.1697 279° West 338 389 18,800  Level Denver Center
05:49PM 39.7009 -105.5972 247° West  Level FlightAware Approximate
05:49PM 39.7742 -105.2983 260° West 340 391 21,400  Level Denver Center
05:50PM 39.7517 -105.4175 256° West 341 392 23,300 1,680 Climbing Denver Center
05:51PM 39.7247 -105.5408 254° West 354 407 24,900 1,680 Climbing Denver Center
05:52PM 39.6969 -105.6794 255° West 368 423 26,800 1,740 Climbing Denver Center
05:53PM 39.6836 -105.8128 263° West 375 432 28,500 1,380 Climbing Denver Center
05:54PM 39.6689 -105.9328 261° West 370 426 29,700 1,200 Climbing Denver Center
05:55PM 39.6497 -106.1006 262° West 389 448 31,000 1,200 Climbing Denver Center
05:56PM 39.6344 -106.2450 262° West 401 461 32,300 1,440 Climbing Denver Center
05:57PM 39.6050 -106.3828 255° West 397 457 34,000 1,380 Climbing Denver Center
05:58PM 39.5575 -106.5272 247° West 394 453 35,200 960 Climbing Denver Center
05:59PM 39.5175 -106.6522 248° West 393 452 36,000 360 Climbing Denver Center
06:00PM 39.4711 -106.7950 247° West 387 445 36,000  Level Denver Center
06:01PM 39.4300 -106.9219 247° West 395 455 36,000  Level Denver Center
06:02PM 39.4006 -107.0517 254° West 394 453 36,000  Level Denver Center
06:03PM 39.3617 -107.2042 252° West 399 459 36,000  Level Denver Center
06:04PM 39.3286 -107.3347 252° West 400 460 36,000 -60 Level Denver Center
06:05PM 39.2906 -107.4856 252° West 396 456 35,900  Descending Denver Center
06:06PM 39.2569 -107.6153 252° West 396 456 36,000  Climbing Denver Center
06:07PM 39.2175 -107.7664 251° West 398 458 36,000  Level Denver Center
06:08PM 39.1850 -107.8958 252° West 397 457 36,000 -60 Level Denver Center
06:10PM 39.1456 -108.0464 251° West 397 457 35,900  Descending Denver Center
06:11PM 39.1122 -108.1758 252° West 396 456 36,000  Climbing Denver Center
06:12PM 39.0722 -108.3275 251° West 399 459 36,000  Level Denver Center
06:13PM 39.0372 -108.4569 251° West 399 459 36,000  Level Denver Center
06:14PM 39.0028 -108.5889 251° West 402 463 36,000 -60 Level Denver Center
06:15PM 38.9619 -108.7400 251° West 402 463 35,900  Descending Denver Center
06:16PM 38.9267 -108.8717 251° West 405 466 36,000  Climbing Denver Center
06:17PM 38.8858 -109.0250 251° West 407 468 36,000  Level Denver Center
06:18PM 38.8503 -109.1561 251° West 407 468 36,000  Level Denver Center
06:19PM 38.8078 -109.3075 250° West 404 465 36,000  Level Denver Center
06:20PM 38.7736 -109.4389 252° West 404 465 36,000  Level Denver Center
06:21PM 38.7297 -109.5911 250° West 407 468 36,000  Level Denver Center
06:22PM 38.6942 -109.7217 251° West 406 467 36,000  Level Denver Center
06:23PM 38.6453 -109.8989 251° West 411 473 36,000  Level Salt Lake Center
06:24PM 38.6075 -110.0297 250° West 413 475 36,000  Level Denver Center
06:25PM 38.5636 -110.1844 250° West 415 478 36,000  Level Denver Center
06:26PM 38.5261 -110.3158 250° West 412 474 36,000  Level Denver Center
06:27PM 38.4839 -110.4675 250° West 407 468 36,000  Level Denver Center
06:28PM 38.4453 -110.5994 250° West 413 475 36,000  Level Denver Center
06:29PM 38.3967 -110.7514 248° West 413 475 36,000  Level Salt Lake Center
06:30PM 38.3419 -110.8728 240° Southwest 413 475 36,000  Level Salt Lake Center
06:31PM 38.2875 -110.9906 240° Southwest 414 476 36,000  Level Denver Center
06:32PM 38.2206 -111.1408 240° Southwest 407 468 36,000  Level Denver Center
06:33PM 38.1622 -111.2672 240° Southwest 414 476 36,000  Level Denver Center
06:35PM 38.1075 -111.3936 241° Southwest 410 472 36,000  Level Salt Lake Center
06:36PM 38.0506 -111.5200 240° Southwest 413 475 36,000  Level Salt Lake Center
06:37PM 37.9919 -111.6458 239° Southwest 414 476 36,000  Level Salt Lake Center
06:38PM 37.9331 -111.7700 239° Southwest 413 475 36,000  Level Salt Lake Center
06:39PM 37.8650 -111.9231 241° Southwest 415 478 36,000  Level Salt Lake Center
06:40PM 37.7706 -112.1233 239° Southwest 416 479 36,000  Level Los Angeles Center
06:41PM 37.7494 -112.1744 242° Southwest 414 476 36,000  Level Salt Lake Center
06:42PM 37.6906 -112.2997 239° Southwest 414 476 36,000  Level Salt Lake Center
06:43PM 37.6189 -112.4133 231° Southwest 413 475 36,000  Level Salt Lake Center
06:44PM 37.5456 -112.5275 231° Southwest 415 478 36,000  Level Salt Lake Center
06:45PM 37.4725 -112.6419 231° Southwest 415 478 36,000  Level Salt Lake Center
06:46PM 37.3975 -112.7569 231° Southwest 416 479 36,000  Level Salt Lake Center
06:47PM 37.3375 -112.8500 231° Southwest 420 483 36,000  Level Los Angeles Center
06:47PM 37.3231 -112.8725 231° Southwest 419 482 36,000  Level Salt Lake Center
06:48PM 37.2347 -113.0089 231° Southwest 417 480 36,000  Level Salt Lake Center
06:49PM 37.1617 -113.1211 231° Southwest 415 478 36,000  Level Salt Lake Center
06:50PM 37.1183 -113.1886 231° Southwest 414 476 36,000  Level Los Angeles Center
06:51PM 37.0447 -113.3011 231° Southwest 416 479 36,000  Level Los Angeles Center
06:52PM 36.9714 -113.4131 231° Southwest 416 479 36,000  Level Los Angeles Center
06:53PM 36.8825 -113.5478 231° Southwest 417 480 36,000  Level Los Angeles Center
06:54PM 36.8089 -113.6586 230° Southwest 416 479 36,000  Level Los Angeles Center
06:55PM 36.7342 -113.7711 230° Southwest 419 482 36,000  Level Los Angeles Center
06:56PM 36.6450 -113.9056 230° Southwest 420 483 36,000  Level Los Angeles Center
06:57PM 36.5686 -114.0167 229° Southwest 421 484 36,000  Level Los Angeles Center
06:58PM 36.4817 -114.1486 231° Southwest 419 482 36,000  Level Los Angeles Center
06:59PM 36.4061 -114.2597 230° Southwest 421 484 36,000  Level Los Angeles Center
07:00PM 36.3306 -114.3728 230° Southwest 424 488 36,000  Level Los Angeles Center
07:01PM 36.2539 -114.4861 230° Southwest 426 490 36,000  Level Los Angeles Center
07:02PM 36.1783 -114.5972 230° Southwest 423 487 36,000 -60 Level Los Angeles Center
07:03PM 36.1022 -114.7086 230° Southwest 421 484 35,900  Descending Los Angeles Center
07:04PM 36.0097 -114.8442 230° Southwest 426 490 36,000  Climbing Los Angeles Center
07:05PM 35.9289 -114.9542 228° Southwest 429 494 36,000  Level Los Angeles Center
07:06PM 35.8492 -115.0636 228° Southwest 427 491 36,000  Level Los Angeles Center
07:07PM 35.7689 -115.1719 228° Southwest 427 491 36,000  Level Los Angeles Center
07:08PM 35.6889 -115.2803 228° Southwest 426 490 36,000  Level Los Angeles Center
07:10PM 35.6094 -115.3883 228° Southwest 425 489 36,000  Level Los Angeles Center
07:11PM 35.5292 -115.4961 228° Southwest 425 489 36,000  Level Los Angeles Center
07:12PM 35.4492 -115.6036 228° Southwest 427 491 36,000 -300 Level Los Angeles Center
07:13PM 35.3536 -115.7322 228° Southwest 427 491 35,400 -840 Descending Los Angeles Center
07:14PM 35.2722 -115.8389 227° Southwest 428 493 34,300 -1,020 Descending Los Angeles Center
07:15PM 35.1919 -115.9461 228° Southwest 428 493 33,400 -960 Descending Los Angeles Center
07:16PM 35.1119 -116.0506 227° Southwest 423 487 32,400 -1,020 Descending Los Angeles Center
07:17PM 35.0325 -116.1542 227° Southwest 419 482 31,400 -960 Descending Los Angeles Center
07:18PM 34.9422 -116.2481 220° Southwest 426 490 30,400 -1,080 Descending Los Angeles Center
07:19PM 34.8361 -116.3575 220° Southwest 419 482 29,200 -1,080 Descending Los Angeles Center
07:20PM 34.7494 -116.4478 221° Southwest 412 474 28,200 -1,020 Descending Los Angeles Center
07:21PM 34.6650 -116.5361 221° Southwest 402 463 27,200 -780 Descending Los Angeles Center
07:22PM 34.5811 -116.6231 220° Southwest 396 456 26,700 -780 Descending Los Angeles Center
07:23PM 34.4978 -116.7083 220° Southwest 392 451 25,700 -1,020 Descending Los Angeles Center
07:24PM 34.4125 -116.7939 220° Southwest 395 455 24,600 -1,380 Descending Los Angeles Center
07:25PM 34.3153 -116.8942 220° Southwest 381 438 22,700 -1,680 Descending Los Angeles Center
07:26PM 34.2375 -116.9756 221° Southwest 371 427 20,900 -1,800 Descending Los Angeles Center
07:27PM 34.1419 -117.0711 220° Southwest 370 426 19,000 -1,140 Descending Los Angeles Center
07:28PM 34.0708 -117.1625 227° Southwest 345 397 18,600 -960 Descending Los Angeles Center
07:29PM 33.9833 -117.2167 207° Southwest 334 384 17,000 -1,260 Descending Southern California TRACON
07:30PM 33.9667 -117.3167 259° West 305 351 16,000 -960 Descending Southern California TRACON
07:31PM 33.9667 -117.4167 270° West 299 344 15,100 -1,380 Descending Southern California TRACON
07:32PM 33.9833 -117.5167 281° West 301 346 13,300 -1,740 Descending Southern California TRACON
07:33PM 34.0000 -117.6000 284° West 298 343 11,900 -1,500 Descending Southern California TRACON
07:34PM 34.0000 -117.7000 270° West 292 336 10,300 -1,440 Descending Southern California TRACON
07:35PM 34.0000 -117.8000 270° West 269 310 8,900 -1,200 Descending Southern California TRACON
07:36PM 33.9833 -117.8833 256° West 236 272 7,900 -1,260 Descending Southern California TRACON
07:37PM 33.9833 -117.9500 270° West 231 266 6,400 -1,200 Descending Southern California TRACON
07:38PM 33.9667 -118.0333 256° West 209 241 5,500 -780 Descending Southern California TRACON
07:39PM 33.9667 -118.1000 270° West 203 234 4,900 -660 Descending Southern California TRACON
07:40PM 33.9667 -118.1500 270° West 179 206 4,200 -840 Descending Southern California TRACON
07:41PM 33.9589 -118.1764 250° West 188 216 3,800 -1,140 Descending Los Angeles Center
07:42PM 33.9528 -118.2344 263° West 180 207 2,700 -1,080 Descending Los Angeles Center